Time;durP1;ratioP1;P1;durP2;ratioP2;P2;SDS_P1;SDS_P2;PMS_P1;PMS_P2;Temp;Humidity;BMP_temperature;BMP_pressure;BME280_temperature;BME280_humidity;BME280_pressure;Samples;Min_cycle;Max_cycle;Signal;HPM_P1;HPM_P2
2022/05/01 00:00:29;;;;;;;7.43;4.80;;;5.90;99.90;;;;;;5056602;28;20649;-60
2022/05/01 00:02:56;;;;;;;7.13;4.53;;;6.00;99.90;;;;;;5075973;28;20197;-60
2022/05/01 00:05:23;;;;;;;7.77;4.60;;;6.10;99.90;;;;;;5066416;28;20722;-60
2022/05/01 00:07:50;;;;;;;11.33;4.60;;;6.00;99.90;;;;;;5088890;28;20358;-60
2022/05/01 00:10:17;;;;;;;7.17;4.60;;;6.00;99.90;;;;;;5068939;28;20231;-61
2022/05/01 00:12:45;;;;;;;7.80;4.90;;;5.90;99.90;;;;;;5080212;28;20220;-61
2022/05/01 00:15:12;;;;;;;8.63;5.67;;;5.90;99.90;;;;;;5080966;28;20580;-60
2022/05/01 00:17:39;;;;;;;7.50;5.40;;;5.90;99.90;;;;;;5077541;28;20213;-61
2022/05/01 00:20:07;;;;;;;4.80;3.70;;;5.90;99.90;;;;;;5071056;28;20234;-61
2022/05/01 00:22:34;;;;;;;5.50;3.93;;;5.90;99.90;;;;;;5077515;28;20228;-60
2022/05/01 00:25:01;;;;;;;4.47;3.60;;;5.80;99.90;;;;;;5066936;28;20200;-60
2022/05/01 00:27:28;;;;;;;6.40;4.20;;;5.80;99.90;;;;;;5075862;28;20230;-61
2022/05/01 00:29:58;;;;;;;4.33;3.83;;;5.90;99.90;;;;;;5073122;28;20232;-60
2022/05/01 00:32:25;;;;;;;6.80;3.93;;;5.90;99.90;;;;;;5089602;28;20230;-60
2022/05/01 00:37:37;;;;;;;6.37;4.40;;;5.90;99.90;;;;;;5070678;28;21246;-60
2022/05/01 00:40:04;;;;;;;8.20;4.63;;;6.00;99.90;;;;;;5066267;28;20232;-60
2022/05/01 00:42:31;;;;;;;6.10;4.87;;;6.00;99.90;;;;;;5077656;28;20232;-61
2022/05/01 00:44:59;;;;;;;6.20;5.03;;;6.00;99.90;;;;;;5063205;28;20230;-61
2022/05/01 00:47:26;;;;;;;6.20;4.97;;;5.90;99.90;;;;;;5090315;28;20711;-60
2022/05/01 00:49:53;;;;;;;6.33;5.03;;;5.90;99.90;;;;;;5055613;28;20666;-61
2022/05/01 00:52:22;;;;;;;5.63;4.40;;;5.90;99.90;;;;;;5080272;28;20233;-60
2022/05/01 00:54:49;;;;;;;7.83;4.47;;;5.80;99.90;;;;;;5089488;28;20219;-60
2022/05/01 00:57:17;;;;;;;5.57;4.90;;;5.80;99.90;;;;;;5060163;28;20285;-60
2022/05/01 00:59:46;;;;;;;6.67;5.97;;;5.70;99.90;;;;;;5069352;28;20712;-60
2022/05/01 01:02:14;;;;;;;6.90;6.13;;;5.50;99.90;;;;;;5050963;28;20227;-60
2022/05/01 01:04:41;;;;;;;6.53;5.37;;;5.30;99.90;;;;;;5064850;28;20227;-60
2022/05/01 01:07:08;;;;;;;7.97;6.53;;;5.20;99.90;;;;;;5085050;28;20227;-60
2022/05/01 01:09:36;;;;;;;14.57;9.03;;;5.00;99.90;;;;;;5072960;28;20233;-60
2022/05/01 01:14:48;;;;;;;12.53;9.17;;;4.70;99.90;;;;;;5084404;28;20230;-60
2022/05/01 01:17:16;;;;;;;12.47;8.60;;;4.60;99.90;;;;;;5065234;28;20355;-60
2022/05/01 01:19:43;;;;;;;10.47;8.10;;;4.40;99.90;;;;;;5065358;28;20220;-61
2022/05/01 01:22:12;;;;;;;10.67;7.80;;;4.40;99.90;;;;;;5078733;28;20229;-61
2022/05/01 01:24:44;;;;;;;8.93;7.10;;;4.40;99.90;;;;;;5078372;28;20293;-60
2022/05/01 01:27:13;;;;;;;11.00;8.10;;;4.40;99.90;;;;;;5065741;28;20834;-60
2022/05/01 01:32:27;;;;;;;7.60;6.40;;;4.40;99.90;;;;;;5078999;28;20250;-60
2022/05/01 01:34:56;;;;;;;9.47;6.50;;;4.40;99.90;;;;;;5073657;28;20243;-61
2022/05/01 01:37:25;;;;;;;6.20;5.23;;;4.30;99.90;;;;;;5077794;28;20242;-61
2022/05/01 01:39:53;;;;;;;6.50;4.67;;;4.30;99.90;;;;;;5097148;28;20282;-60
2022/05/01 01:42:22;;;;;;;6.57;5.40;;;4.30;99.90;;;;;;5085280;28;20312;-60
2022/05/01 01:44:50;;;;;;;6.13;4.20;;;4.20;99.90;;;;;;5078773;28;20719;-60
2022/05/01 01:47:18;;;;;;;5.53;4.13;;;4.20;99.90;;;;;;5067900;28;20230;-60
2022/05/01 01:49:45;;;;;;;9.07;5.03;;;4.00;99.90;;;;;;5074632;28;20776;-60
2022/05/01 01:52:12;;;;;;;6.20;4.83;;;4.00;99.90;;;;;;5062861;28;20292;-60
2022/05/01 01:54:40;;;;;;;7.57;4.97;;;3.90;99.90;;;;;;5082226;28;20637;-60
2022/05/01 01:57:07;;;;;;;6.73;4.93;;;3.90;99.90;;;;;;5074012;28;20220;-60
2022/05/01 01:59:34;;;;;;;23.17;6.77;;;3.90;99.90;;;;;;5073049;28;20646;-60
2022/05/01 02:02:01;;;;;;;7.17;5.63;;;4.00;99.90;;;;;;5081715;28;20222;-60
2022/05/01 02:04:28;;;;;;;10.33;6.20;;;4.00;99.90;;;;;;5067057;28;20357;-60
2022/05/01 02:06:56;;;;;;;9.97;5.63;;;4.00;99.90;;;;;;5054585;28;20226;-61
2022/05/01 02:09:23;;;;;;;7.57;5.67;;;4.10;99.90;;;;;;5073365;28;20254;-60
2022/05/01 02:11:53;;;;;;;10.27;6.03;;;4.10;99.90;;;;;;5056065;28;20325;-60
2022/05/01 02:14:20;;;;;;;7.40;5.83;;;4.10;99.90;;;;;;5073580;28;20231;-61
2022/05/01 02:16:48;;;;;;;9.33;6.27;;;4.20;99.90;;;;;;5057055;28;20376;-60
2022/05/01 02:19:15;;;;;;;9.43;6.47;;;4.20;99.90;;;;;;5074053;28;20234;-60
2022/05/01 02:21:42;;;;;;;9.20;6.93;;;4.10;99.90;;;;;;5056153;28;20227;-60
2022/05/01 02:24:12;;;;;;;8.47;6.53;;;4.10;99.90;;;;;;5061016;28;20230;-60
2022/05/01 02:26:40;;;;;;;7.40;6.07;;;4.10;99.90;;;;;;5085327;28;20613;-60
2022/05/01 02:29:10;;;;;;;7.60;6.10;;;4.20;99.90;;;;;;5064076;28;20238;-61
2022/05/01 02:31:39;;;;;;;9.27;5.53;;;4.30;99.90;;;;;;5051958;28;20312;-60
2022/05/01 02:34:06;;;;;;;6.57;4.90;;;4.30;99.90;;;;;;5067689;28;20221;-60
2022/05/01 02:36:33;;;;;;;6.17;4.77;;;4.20;99.90;;;;;;5057189;28;20234;-60
2022/05/01 02:39:00;;;;;;;6.53;3.90;;;4.00;99.90;;;;;;5080316;28;20223;-61
2022/05/01 02:41:28;;;;;;;4.57;3.60;;;3.60;99.90;;;;;;5079069;28;20890;-60
2022/05/01 02:43:56;;;;;;;5.30;4.23;;;3.40;99.90;;;;;;5060846;28;20353;-60
2022/05/01 02:46:25;;;;;;;5.13;4.30;;;3.20;99.90;;;;;;5063704;28;20330;-60
2022/05/01 02:52:16;;;;;;;4.80;4.17;;;3.20;99.90;;;;;;5053263;28;20206;-60
2022/05/01 02:54:43;;;;;;;5.57;4.47;;;3.20;99.90;;;;;;5072338;28;20229;-60
2022/05/01 02:57:10;;;;;;;5.07;4.10;;;3.20;99.90;;;;;;5088793;28;20199;-60
2022/05/01 02:59:37;;;;;;;6.97;4.33;;;3.20;99.90;;;;;;5086263;28;20218;-60
2022/05/01 03:02:05;;;;;;;6.83;4.73;;;3.20;99.90;;;;;;5057515;28;20209;-60
2022/05/01 03:04:32;;;;;;;5.90;5.07;;;3.30;99.90;;;;;;5076007;28;20207;-61
2022/05/01 03:06:59;;;;;;;7.37;5.67;;;3.30;99.90;;;;;;5055746;28;20209;-60
2022/05/01 03:09:26;;;;;;;10.30;5.10;;;3.30;99.90;;;;;;5071608;28;20231;-60
2022/05/01 03:11:53;;;;;;;7.23;5.37;;;3.20;99.90;;;;;;5091120;28;20918;-60
2022/05/01 03:14:20;;;;;;;19.87;5.83;;;3.30;99.90;;;;;;5083249;28;20224;-60
2022/05/01 03:16:47;;;;;;;7.23;5.30;;;3.30;99.90;;;;;;5082537;28;20245;-61
2022/05/01 03:22:13;;;;;;;5.30;4.67;;;3.10;99.90;;;;;;5064423;28;20265;-60
2022/05/01 03:24:41;;;;;;;4.83;4.27;;;3.20;99.90;;;;;;5093033;28;20567;-60
2022/05/01 03:27:08;;;;;;;4.20;3.80;;;3.20;99.90;;;;;;5080927;28;20223;-60
2022/05/01 03:29:36;;;;;;;4.37;3.63;;;3.30;99.90;;;;;;5073863;28;20607;-60
2022/05/01 03:32:07;;;;;;;4.67;3.90;;;3.30;99.90;;;;;;5081513;28;20707;-60
2022/05/01 03:34:37;;;;;;;4.27;3.83;;;3.30;99.90;;;;;;5076652;28;24366;-60
2022/05/01 03:37:06;;;;;;;4.70;4.23;;;3.30;99.90;;;;;;5068573;28;20601;-60
2022/05/01 03:39:34;;;;;;;5.30;4.67;;;3.40;99.90;;;;;;5077200;28;20228;-60
2022/05/01 03:42:01;;;;;;;6.00;4.37;;;3.30;99.90;;;;;;5065057;28;20235;-60
2022/05/01 03:44:28;;;;;;;5.00;4.43;;;3.40;99.90;;;;;;5078649;28;20245;-60
2022/05/01 03:46:55;;;;;;;6.17;4.63;;;3.40;99.90;;;;;;5079250;28;20225;-60
2022/05/01 03:49:22;;;;;;;6.73;4.57;;;3.50;99.90;;;;;;5064897;28;20651;-61
2022/05/01 03:51:50;;;;;;;4.07;3.67;;;3.40;99.90;;;;;;5080103;28;20215;-60
2022/05/01 03:54:17;;;;;;;6.80;3.90;;;3.50;99.90;;;;;;5068013;28;20291;-60
2022/05/01 03:56:44;;;;;;;4.87;4.00;;;3.40;99.90;;;;;;5071793;28;20225;-60
2022/05/01 03:59:11;;;;;;;4.87;4.23;;;3.50;99.90;;;;;;5067888;28;20220;-61
2022/05/01 04:01:38;;;;;;;4.53;4.10;;;3.70;99.90;;;;;;5087045;27;20206;-61
2022/05/01 04:04:06;;;;;;;4.53;4.03;;;3.80;99.90;;;;;;5056179;28;20210;-60
2022/05/01 04:06:32;;;;;;;4.97;3.67;;;3.80;99.90;;;;;;5080421;28;20212;-60
2022/05/01 04:09:01;;;;;;;4.03;3.63;;;3.70;99.90;;;;;;5076554;28;20226;-60
2022/05/01 04:11:28;;;;;;;5.67;4.33;;;3.70;99.90;;;;;;5094813;28;20239;-60
2022/05/01 04:13:56;;;;;;;4.47;3.90;;;3.70;99.90;;;;;;5092727;28;20204;-60
2022/05/01 04:16:22;;;;;;;4.87;4.00;;;3.60;99.90;;;;;;5074824;27;20222;-60
2022/05/01 04:18:50;;;;;;;5.43;4.70;;;3.50;99.90;;;;;;5069581;28;20657;-60
2022/05/01 04:21:16;;;;;;;5.50;4.80;;;3.30;99.90;;;;;;5075938;27;20280;-60
2022/05/01 04:23:43;;;;;;;9.83;5.03;;;3.30;99.90;;;;;;5095572;28;20214;-60
2022/05/01 04:26:12;;;;;;;7.33;5.17;;;3.40;99.90;;;;;;5101389;28;20280;-60
2022/05/01 04:28:38;;;;;;;9.40;7.10;;;3.50;99.90;;;;;;5104068;28;20258;-60
2022/05/01 04:31:05;;;;;;;49.23;8.23;;;3.40;99.90;;;;;;5081734;28;20231;-60
2022/05/01 04:33:32;;;;;;;23.00;7.33;;;3.40;99.90;;;;;;5091287;28;20210;-60
2022/05/01 04:35:59;;;;;;;9.10;6.50;;;3.30;99.90;;;;;;5057052;28;21010;-60
2022/05/01 04:38:27;;;;;;;9.90;6.97;;;3.20;99.90;;;;;;5082804;28;20208;-60
2022/05/01 04:40:55;;;;;;;12.67;6.67;;;3.30;99.90;;;;;;5063437;27;20280;-60
2022/05/01 04:43:24;;;;;;;11.27;6.83;;;3.50;99.90;;;;;;5080868;28;20673;-60
2022/05/01 04:45:53;;;;;;;11.37;7.33;;;3.50;99.90;;;;;;5062915;28;20679;-60
2022/05/01 04:48:22;;;;;;;10.90;6.83;;;3.60;99.90;;;;;;5086559;28;20228;-60
2022/05/01 04:50:49;;;;;;;10.23;6.63;;;3.70;99.90;;;;;;5056838;28;20211;-60
2022/05/01 04:53:19;;;;;;;20.43;7.40;;;3.80;99.90;;;;;;5077527;28;20240;-61
2022/05/01 04:55:47;;;;;;;54.73;7.60;;;3.90;99.90;;;;;;5060570;28;20213;-60
2022/05/01 04:58:16;;;;;;;7.37;5.83;;;3.90;99.90;;;;;;5088496;28;20238;-60
2022/05/01 05:00:45;;;;;;;10.10;6.83;;;4.20;99.90;;;;;;5065261;28;21177;-60
2022/05/01 05:03:12;;;;;;;13.83;6.47;;;4.30;99.90;;;;;;5093061;28;20209;-60
2022/05/01 05:05:39;;;;;;;9.53;7.17;;;4.50;99.90;;;;;;5058461;28;20211;-60
2022/05/01 05:10:51;;;;;;;9.50;6.43;;;4.80;99.90;;;;;;5074382;28;20226;-61
2022/05/01 05:13:23;;;;;;;38.00;7.70;;;4.90;99.90;;;;;;5059890;28;20211;-60
2022/05/01 05:15:53;;;;;;;15.17;6.50;;;5.00;99.90;;;;;;5079762;28;20212;-60
2022/05/01 05:18:20;;;;;;;11.30;7.67;;;5.20;99.90;;;;;;5069228;28;20211;-61
2022/05/01 05:20:47;;;;;;;16.77;7.53;;;5.30;99.90;;;;;;5069341;28;20211;-60
2022/05/01 05:23:14;;;;;;;64.90;9.40;;;5.50;99.90;;;;;;5082941;28;20570;-60
2022/05/01 05:25:41;;;;;;;20.97;10.17;;;5.50;99.90;;;;;;5065467;28;28095;-60
2022/05/01 05:28:08;;;;;;;12.23;9.03;;;5.70;99.90;;;;;;5082299;28;20210;-60
2022/05/01 05:30:35;;;;;;;13.23;9.20;;;5.80;99.90;;;;;;5087753;28;20236;-60
2022/05/01 05:33:04;;;;;;;11.87;9.33;;;5.90;99.90;;;;;;5074657;28;20692;-61
2022/05/01 05:35:31;;;;;;;12.37;10.40;;;6.10;99.90;;;;;;5087653;28;20560;-60
2022/05/01 05:37:58;;;;;;;14.57;9.47;;;6.20;99.90;;;;;;5067216;28;20222;-60
2022/05/01 05:40:25;;;;;;;14.13;9.97;;;6.30;99.90;;;;;;5067438;28;20241;-60
2022/05/01 05:42:52;;;;;;;14.87;9.63;;;6.40;99.90;;;;;;5052052;27;20890;-60
2022/05/01 05:45:18;;;;;;;13.30;10.37;;;6.40;99.90;;;;;;5079395;28;20199;-60
2022/05/01 05:47:45;;;;;;;17.30;9.80;;;6.50;99.90;;;;;;5065194;28;21291;-60
2022/05/01 05:50:13;;;;;;;12.53;10.07;;;6.60;99.90;;;;;;5080597;28;21000;-60
2022/05/01 05:52:41;;;;;;;14.30;9.67;;;6.70;99.90;;;;;;5073585;28;20206;-60
2022/05/01 05:55:09;;;;;;;13.83;10.60;;;6.70;99.90;;;;;;5073935;22;20318;-61
2022/05/01 05:57:36;;;;;;;14.10;9.57;;;6.70;99.90;;;;;;5034750;28;20306;-60
2022/05/01 06:00:04;;;;;;;16.53;9.77;;;6.70;99.90;;;;;;5046404;28;20213;-60
2022/05/01 06:02:31;;;;;;;14.17;10.03;;;6.80;99.90;;;;;;5030353;28;20209;-60
2022/05/01 06:04:59;;;;;;;15.37;10.00;;;6.90;99.90;;;;;;5048816;28;20212;-61
2022/05/01 06:07:28;;;;;;;12.37;10.17;;;6.90;99.90;;;;;;5055546;28;20766;-60
2022/05/01 06:09:55;;;;;;;17.10;10.07;;;7.00;99.90;;;;;;5023161;28;20235;-61
2022/05/01 06:12:22;;;;;;;18.50;10.07;;;7.10;99.90;;;;;;5031290;28;20237;-60
2022/05/01 06:14:49;;;;;;;13.00;10.27;;;7.10;99.90;;;;;;5045475;28;20250;-60
2022/05/01 06:17:16;;;;;;;14.07;10.10;;;7.20;99.90;;;;;;5051688;28;20198;-60
2022/05/01 06:19:43;;;;;;;15.43;10.10;;;7.20;99.90;;;;;;5050838;28;20958;-61
2022/05/01 06:22:11;;;;;;;12.07;9.30;;;7.30;99.90;;;;;;5057656;28;20223;-61
2022/05/01 06:24:39;;;;;;;13.63;9.60;;;7.40;99.90;;;;;;5029090;28;20231;-61
2022/05/01 06:27:07;;;;;;;12.03;10.00;;;7.40;99.90;;;;;;5046208;28;20205;-63
2022/05/01 06:29:34;;;;;;;15.30;10.23;;;7.50;99.90;;;;;;5054324;28;20229;-60
2022/05/01 06:32:01;;;;;;;13.47;9.97;;;7.60;99.90;;;;;;5044988;28;20207;-61
2022/05/01 06:34:29;;;;;;;17.77;9.97;;;7.60;99.90;;;;;;5055543;28;20208;-61
2022/05/01 06:36:57;;;;;;;14.80;10.03;;;7.70;99.90;;;;;;5038928;28;20200;-61
2022/05/01 06:39:24;;;;;;;13.23;9.90;;;7.80;99.90;;;;;;5050867;28;20685;-61
2022/05/01 06:41:52;;;;;;;13.27;9.93;;;7.90;99.90;;;;;;5054969;28;20975;-62
2022/05/01 06:44:19;;;;;;;14.30;9.97;;;7.90;99.90;;;;;;5046120;28;20219;-61
2022/05/01 06:46:47;;;;;;;12.27;9.60;;;8.00;99.90;;;;;;5057702;28;20238;-61
2022/05/01 06:49:14;;;;;;;14.10;8.97;;;8.10;99.90;;;;;;5055302;28;20226;-62
2022/05/01 06:51:41;;;;;;;12.33;9.80;;;8.10;99.90;;;;;;5064432;28;20232;-62
2022/05/01 06:54:10;;;;;;;13.60;8.73;;;8.10;99.90;;;;;;5064594;28;20242;-61
2022/05/01 06:56:37;;;;;;;14.57;9.17;;;8.10;99.90;;;;;;5049873;28;20679;-61
2022/05/01 06:59:05;;;;;;;11.20;9.23;;;8.20;99.90;;;;;;5053846;28;20209;-61
2022/05/01 07:01:32;;;;;;;14.17;9.40;;;8.30;99.90;;;;;;5033598;28;20211;-61
2022/05/01 07:03:59;;;;;;;12.47;8.90;;;8.30;99.90;;;;;;5061400;28;20295;-61
2022/05/01 07:06:26;;;;;;;15.50;9.80;;;8.40;99.90;;;;;;5070468;28;20212;-61
2022/05/01 07:08:53;;;;;;;12.03;9.00;;;8.40;99.90;;;;;;5078845;28;20237;-61
2022/05/01 07:11:20;;;;;;;13.13;8.87;;;8.50;99.90;;;;;;5061811;28;20199;-60
2022/05/01 07:13:47;;;;;;;11.53;8.70;;;8.50;99.90;;;;;;5055040;28;20712;-61
2022/05/01 07:16:19;;;;;;;14.77;8.97;;;8.50;99.90;;;;;;5047525;28;21025;-61
2022/05/01 07:18:46;;;;;;;11.50;8.50;;;8.50;99.90;;;;;;5041580;28;20211;-61
2022/05/01 07:21:13;;;;;;;10.73;8.23;;;8.60;99.90;;;;;;5045971;28;20338;-61
2022/05/01 07:23:40;;;;;;;10.77;8.37;;;8.70;99.90;;;;;;5055711;28;21673;-61
2022/05/01 07:26:07;;;;;;;11.20;8.47;;;8.70;99.90;;;;;;5035546;28;20223;-61
2022/05/01 07:28:34;;;;;;;14.13;8.17;;;8.70;99.90;;;;;;5055876;28;20215;-61
2022/05/01 07:31:02;;;;;;;9.80;7.70;;;8.70;99.90;;;;;;5033396;28;20248;-61
2022/05/01 07:33:30;;;;;;;10.60;7.97;;;8.70;99.90;;;;;;5046972;28;20702;-61
2022/05/01 07:35:59;;;;;;;13.17;8.50;;;8.70;99.90;;;;;;5038636;28;20696;-61
2022/05/01 07:38:26;;;;;;;8.60;7.53;;;8.80;99.90;;;;;;5049177;28;20315;-61
2022/05/01 07:40:53;;;;;;;10.97;7.63;;;8.90;99.90;;;;;;5053093;28;20227;-61
2022/05/01 07:43:20;;;;;;;11.47;7.60;;;9.00;99.90;;;;;;5041197;28;20208;-61
2022/05/01 07:45:47;;;;;;;10.03;7.77;;;9.00;99.90;;;;;;5046415;28;20832;-61
2022/05/01 07:48:14;;;;;;;14.00;8.60;;;9.00;99.90;;;;;;5041154;28;20667;-61
2022/05/01 07:50:43;;;;;;;11.07;7.97;;;9.00;99.90;;;;;;5046719;28;20956;-61
2022/05/01 07:53:10;;;;;;;8.87;7.70;;;9.10;99.90;;;;;;5044988;28;20281;-61
2022/05/01 07:55:37;;;;;;;11.97;7.53;;;9.10;99.90;;;;;;5059623;28;20212;-61
2022/05/01 07:58:04;;;;;;;9.27;7.43;;;9.20;99.90;;;;;;5049594;28;20211;-61
2022/05/01 08:00:31;;;;;;;9.50;7.33;;;9.30;99.90;;;;;;5026069;28;20235;-61
2022/05/01 08:05:44;;;;;;;10.57;6.93;;;9.30;99.90;;;;;;5062989;28;20289;-61
2022/05/01 08:08:11;;;;;;;6.40;5.00;;;9.30;99.90;;;;;;5050700;28;20216;-61
2022/05/01 08:10:39;;;;;;;8.33;5.23;;;9.30;99.90;;;;;;5041604;28;20791;-61
2022/05/01 08:13:07;;;;;;;10.93;5.50;;;9.30;99.90;;;;;;5048619;28;20235;-61
2022/05/01 08:15:34;;;;;;;8.60;4.40;;;9.40;99.90;;;;;;5031662;28;20227;-61
2022/05/01 08:23:28;;;;;;;6.97;4.87;;;9.40;99.90;;;;;;5044939;28;20211;-60
2022/05/01 08:25:55;;;;;;;7.13;4.57;;;9.40;99.90;;;;;;5039047;28;20228;-61
2022/05/01 08:28:22;;;;;;;5.83;4.50;;;9.50;99.90;;;;;;5052029;28;20216;-60
2022/05/01 08:30:49;;;;;;;11.70;5.97;;;9.50;99.90;;;;;;5047068;28;20235;-61
2022/05/01 08:33:16;;;;;;;8.80;4.40;;;9.60;99.90;;;;;;5029153;28;20204;-61
2022/05/01 08:35:45;;;;;;;7.73;5.20;;;9.70;99.90;;;;;;5048984;28;20289;-61
2022/05/01 08:38:12;;;;;;;6.10;4.80;;;9.90;99.90;;;;;;5064164;28;20220;-61
2022/05/01 08:40:39;;;;;;;8.37;5.10;;;10.00;99.90;;;;;;5047054;28;21859;-61
2022/05/01 08:43:06;;;;;;;5.23;4.73;;;10.00;99.90;;;;;;5069882;28;20196;-61
2022/05/01 08:45:49;;;;;;;8.47;4.60;;;10.00;99.90;;;;;;5045465;28;20601;-62
2022/05/01 08:48:20;;;;;;;8.30;5.13;;;10.00;99.90;;;;;;5051079;28;21457;-61
2022/05/01 08:50:49;;;;;;;8.07;5.33;;;10.10;99.90;;;;;;5041777;28;20374;-61
2022/05/01 08:53:19;;;;;;;6.70;4.60;;;10.20;99.90;;;;;;5037650;28;20964;-61
2022/05/01 08:55:47;;;;;;;8.13;5.20;;;10.20;99.90;;;;;;5039560;28;20313;-61
2022/05/01 08:58:15;;;;;;;4.43;3.23;;;10.20;99.90;;;;;;5065033;28;20223;-61
2022/05/01 09:00:43;;;;;;;5.40;3.77;;;10.30;99.90;;;;;;5042871;28;20821;-60
2022/05/01 09:03:10;;;;;;;6.28;4.18;;;10.40;99.90;;;;;;5067016;28;20200;-60
2022/05/01 09:05:37;;;;;;;8.07;3.90;;;10.40;99.90;;;;;;5044270;28;20219;-60
2022/05/01 09:08:06;;;;;;;4.97;4.13;;;10.40;99.90;;;;;;5056748;22;20228;-60
2022/05/01 09:10:34;;;;;;;4.20;3.80;;;10.40;99.90;;;;;;5027687;28;20569;-60
2022/05/01 09:13:00;;;;;;;7.70;3.70;;;10.30;99.90;;;;;;5050150;28;20216;-60
2022/05/01 09:15:30;;;;;;;3.97;3.33;;;10.40;99.90;;;;;;5033177;28;20215;-61
2022/05/01 09:18:01;;;;;;;9.32;4.00;;;10.40;99.90;;;;;;5047443;28;20231;-61
2022/05/01 09:20:28;;;;;;;5.00;3.87;;;10.50;99.90;;;;;;5036697;28;23382;-61
2022/05/01 09:22:57;;;;;;;5.43;3.53;;;10.60;99.90;;;;;;5041576;28;20223;-61
2022/05/01 09:25:27;;;;;;;4.10;3.70;;;10.60;99.90;;;;;;5041013;28;20289;-61
2022/05/01 09:27:57;;;;;;;5.07;3.40;;;10.90;99.90;;;;;;5039816;28;21009;-61
2022/05/01 09:30:31;;;;;;;5.40;3.55;;;11.00;99.90;;;;;;5061240;28;20307;-61
2022/05/01 09:32:58;;;;;;;5.00;3.60;;;11.10;99.90;;;;;;5042481;28;20224;-61
2022/05/01 09:35:31;;;;;;;8.25;4.85;;;11.10;99.90;;;;;;5043997;28;20212;-61
2022/05/01 09:38:15;;;;;;;5.28;4.10;;;11.20;99.90;;;;;;5052421;28;20221;-62
2022/05/01 09:40:44;;;;;;;8.02;3.65;;;11.20;99.90;;;;;;5036769;28;20224;-62
2022/05/01 09:43:35;;;;;;;4.50;3.80;;;11.20;99.90;;;;;;5061570;22;20242;-61
2022/05/01 09:46:17;;;;;;;4.25;3.50;;;11.20;99.90;;;;;;5024301;28;20409;-61
2022/05/01 09:48:57;;;;;;;3.75;3.42;;;11.10;99.90;;;;;;5023876;28;20745;-61
2022/05/01 09:51:25;;;;;;;6.38;3.20;;;11.00;99.90;;;;;;4996762;28;20228;-61
2022/05/01 09:53:52;;;;;;;4.32;3.33;;;10.90;99.90;;;;;;5012572;28;20217;-61
2022/05/01 09:56:21;;;;;;;6.03;3.58;;;11.10;99.90;;;;;;5013608;28;20776;-61
2022/05/01 09:58:58;;;;;;;5.07;2.92;;;11.10;99.90;;;;;;4996153;28;20231;-61
2022/05/01 10:01:26;;;;;;;6.35;2.95;;;11.20;99.90;;;;;;5009725;28;20293;-61
2022/05/01 10:03:53;;;;;;;4.40;3.00;;;11.40;99.90;;;;;;4990821;28;20228;-61
2022/05/01 10:06:21;;;;;;;4.35;2.90;;;11.30;99.90;;;;;;4988240;28;20228;-62
2022/05/01 10:08:48;;;;;;;8.02;3.22;;;11.20;99.90;;;;;;4983956;28;20462;-62
2022/05/01 10:11:17;;;;;;;4.93;3.40;;;11.40;99.90;;;;;;5005827;28;20236;-61
2022/05/01 10:13:47;;;;;;;4.38;3.08;;;11.40;99.90;;;;;;5000004;28;20232;-61
2022/05/01 10:16:15;;;;;;;4.60;3.03;;;11.50;99.90;;;;;;5015961;28;20229;-61
2022/05/01 10:18:44;;;;;;;5.20;2.90;;;11.30;99.90;;;;;;4995940;28;20400;-62
2022/05/01 10:21:12;;;;;;;4.35;2.97;;;11.30;99.90;;;;;;4989367;28;20237;-61
2022/05/01 10:23:40;;;;;;;6.97;3.20;;;11.20;99.90;;;;;;4974560;28;20579;-61
2022/05/01 10:26:13;;;;;;;5.15;2.92;;;11.20;99.90;;;;;;4997906;28;20240;-61
2022/05/01 10:29:00;;;;;;;7.47;3.25;;;11.30;99.90;;;;;;4990622;28;20686;-61
2022/05/01 10:35:03;;;;;;;3.67;2.88;;;11.60;99.90;;;;;;5000482;28;20220;-61
2022/05/01 10:37:50;;;;;;;6.22;2.92;;;11.80;99.90;;;;;;5007248;28;20821;-61
2022/05/01 10:40:18;;;;;;;5.68;3.03;;;12.00;99.90;;;;;;5005334;28;20241;-61
2022/05/01 10:42:47;;;;;;;4.32;2.88;;;12.10;99.90;;;;;;4987285;28;20240;-61
2022/05/01 10:45:44;;;;;;;4.30;2.83;;;12.00;99.90;;;;;;4996519;28;20299;-61
2022/05/01 10:48:15;;;;;;;4.00;3.08;;;12.10;99.90;;;;;;4990348;28;20236;-61
2022/05/01 10:50:42;;;;;;;5.95;2.95;;;12.20;99.90;;;;;;5020242;28;20321;-61
2022/05/01 10:53:11;;;;;;;3.50;2.90;;;11.90;99.90;;;;;;5002886;28;21037;-61
2022/05/01 10:55:52;;;;;;;3.47;2.78;;;11.80;99.90;;;;;;5022976;28;20221;-61
2022/05/01 10:58:21;;;;;;;3.13;2.80;;;11.70;99.90;;;;;;5006502;28;20221;-61
2022/05/01 11:00:50;;;;;;;5.40;2.97;;;11.70;99.90;;;;;;5008297;28;20232;-61
2022/05/01 11:03:26;;;;;;;3.80;2.78;;;11.60;99.90;;;;;;5004818;28;21140;-61
2022/05/01 11:06:06;;;;;;;3.97;2.97;;;11.70;99.90;;;;;;5021991;28;20231;-60
2022/05/01 11:08:36;;;;;;;4.22;2.92;;;11.80;99.90;;;;;;4997302;28;20221;-61
2022/05/01 11:11:07;;;;;;;3.08;2.78;;;11.80;99.90;;;;;;5018860;28;20240;-62
2022/05/01 11:13:37;;;;;;;3.72;2.90;;;11.80;99.90;;;;;;4999361;28;20606;-62
2022/05/01 11:16:07;;;;;;;4.53;2.88;;;11.80;99.90;;;;;;5005884;28;20233;-62
2022/05/01 11:18:36;;;;;;;3.72;2.90;;;11.80;99.90;;;;;;5009887;28;20233;-62
2022/05/01 11:21:32;;;;;;;3.25;2.95;;;11.90;99.90;;;;;;5011141;28;20813;-62
2022/05/01 11:24:01;;;;;;;3.40;3.05;;;11.90;99.90;;;;;;4958505;28;20230;-62
2022/05/01 11:26:28;;;;;;;5.72;3.03;;;11.90;99.90;;;;;;5005221;28;20667;-61
2022/05/01 11:29:14;;;;;;;4.60;2.90;;;12.10;99.90;;;;;;5026393;28;20226;-60
2022/05/01 11:31:45;;;;;;;3.70;2.78;;;12.20;99.90;;;;;;5016417;28;20300;-61
2022/05/01 11:34:34;;;;;;;4.07;3.10;;;12.20;99.90;;;;;;5024744;28;20221;-61
2022/05/01 11:37:05;;;;;;;3.00;2.50;;;12.30;99.90;;;;;;5036836;28;20208;-61
2022/05/01 11:40:11;;;;;;;5.53;3.05;;;12.40;99.90;;;;;;5016076;28;20653;-61
2022/05/01 11:42:38;;;;;;;3.42;3.03;;;12.30;99.90;;;;;;5035812;28;20222;-61
2022/05/01 11:45:08;;;;;;;4.15;2.92;;;12.30;99.90;;;;;;5028595;28;20214;-61
2022/05/01 11:47:40;;;;;;;3.40;2.45;;;12.30;99.90;;;;;;5039547;28;20221;-61
2022/05/01 11:50:17;;;;;;;5.25;3.10;;;12.40;99.90;;;;;;5021494;28;20212;-61
2022/05/01 11:52:47;;;;;;;3.50;3.20;;;12.40;99.90;;;;;;5026474;28;20293;-61
2022/05/01 11:55:15;;;;;;;4.38;2.80;;;12.40;99.90;;;;;;5014256;28;20600;-61
2022/05/01 12:03:14;;;;;;;5.38;3.20;;;12.40;99.90;;;;;;5026472;28;20203;-61
2022/05/01 12:05:45;;;;;;;5.05;3.13;;;12.40;99.90;;;;;;5027295;28;20194;-61
2022/05/01 12:08:12;;;;;;;5.05;2.95;;;12.50;99.90;;;;;;5039449;28;20559;-60
2022/05/01 12:10:43;;;;;;;4.00;2.97;;;12.60;99.90;;;;;;5024861;28;20502;-61
2022/05/01 12:13:20;;;;;;;2.70;2.50;;;12.60;99.90;;;;;;5037965;28;20194;-61
2022/05/01 12:15:48;;;;;;;4.75;3.35;;;12.30;99.90;;;;;;5033446;28;20448;-61
2022/05/01 12:18:16;;;;;;;5.40;2.88;;;12.30;99.90;;;;;;5040195;28;20200;-61
2022/05/01 12:20:43;;;;;;;3.88;2.90;;;12.10;99.90;;;;;;5032026;28;20304;-61
2022/05/01 12:23:15;;;;;;;6.35;3.08;;;12.10;99.90;;;;;;5047215;28;20359;-61
2022/05/01 12:25:44;;;;;;;6.85;3.72;;;12.00;99.90;;;;;;5011944;28;20226;-61
2022/05/01 12:28:12;;;;;;;3.50;2.95;;;12.00;99.90;;;;;;5042036;28;20289;-60
2022/05/01 12:30:42;;;;;;;3.80;3.03;;;11.90;99.90;;;;;;5023259;28;20221;-60
2022/05/01 12:33:20;;;;;;;4.07;3.10;;;11.90;99.90;;;;;;5025518;28;20224;-61
2022/05/01 12:35:58;;;;;;;6.43;2.95;;;12.00;99.90;;;;;;5010347;28;20315;-62
2022/05/01 12:38:27;;;;;;;5.78;3.08;;;12.00;99.90;;;;;;5007899;28;20801;-61
2022/05/01 12:43:55;;;;;;;4.50;3.20;;;12.00;99.90;;;;;;5006888;28;20762;-61
2022/05/01 12:46:28;;;;;;;4.50;2.92;;;12.00;99.90;;;;;;5003494;28;20679;-61
2022/05/01 12:48:58;;;;;;;3.83;2.63;;;11.90;99.90;;;;;;5009356;28;20206;-61
2022/05/01 12:51:35;;;;;;;3.63;2.80;;;11.90;99.90;;;;;;4985159;28;20267;-61
2022/05/01 12:54:10;;;;;;;6.90;2.90;;;11.90;99.90;;;;;;5012023;28;20222;-61
2022/05/01 12:56:38;;;;;;;6.75;3.50;;;11.90;99.90;;;;;;5001029;28;20229;-61
2022/05/01 12:59:24;;;;;;;5.35;3.10;;;12.00;99.90;;;;;;4982666;28;20710;-61
2022/05/01 13:01:52;;;;;;;5.43;2.83;;;12.10;99.90;;;;;;5004432;28;20226;-63
2022/05/01 13:04:25;;;;;;;6.70;2.60;;;12.10;99.90;;;;;;5013166;28;20209;-62
2022/05/01 13:06:52;;;;;;;4.35;3.30;;;12.20;99.90;;;;;;5009715;28;20229;-62
2022/05/01 13:09:20;;;;;;;3.38;2.70;;;12.20;99.90;;;;;;5017510;28;20279;-62
2022/05/01 13:12:04;;;;;;;6.20;2.65;;;12.20;99.90;;;;;;5007141;28;20241;-62
2022/05/01 13:14:33;;;;;;;4.05;2.70;;;12.20;99.90;;;;;;5000591;28;21300;-61
2022/05/01 13:17:11;;;;;;;3.53;3.15;;;12.30;99.90;;;;;;4988750;28;20264;-62
2022/05/01 13:19:41;;;;;;;4.50;2.80;;;12.40;99.90;;;;;;5018091;28;20939;-62
2022/05/01 13:22:09;;;;;;;4.75;2.97;;;12.40;99.90;;;;;;4997120;28;20610;-61
2022/05/01 13:24:38;;;;;;;3.70;2.70;;;12.60;99.90;;;;;;5008619;28;20216;-62
2022/05/01 13:27:07;;;;;;;3.33;2.95;;;12.50;99.90;;;;;;5004468;28;20221;-61
2022/05/01 13:29:36;;;;;;;5.60;2.53;;;12.50;99.90;;;;;;5009191;28;20219;-62
2022/05/01 13:32:06;;;;;;;5.45;2.83;;;12.60;99.90;;;;;;4988167;28;20244;-62
2022/05/01 13:34:34;;;;;;;4.57;3.25;;;12.60;99.90;;;;;;5005516;28;20222;-62
2022/05/01 13:37:06;;;;;;;6.53;3.38;;;12.60;99.90;;;;;;5020181;28;20221;-61